Time;durP1;ratioP1;P1;durP2;ratioP2;P2;SDS_P1;SDS_P2;PMS_P1;PMS_P2;Temp;Humidity;BMP_temperature;BMP_pressure;BME280_temperature;BME280_humidity;BME280_pressure;Samples;Min_cycle;Max_cycle;Signal;HPM_P1;HPM_P2
2022/12/11 00:01:58;;;;;;;2.95;2.17;;;14.90;89.70;;;;;;4995574;28;20030;-87
2022/12/11 00:04:24;;;;;;;2.35;1.80;;;15.00;89.80;;;;;;5013052;28;20032;-87
2022/12/11 00:06:52;;;;;;;2.38;2.00;;;15.00;89.80;;;;;;5000695;28;20465;-87
2022/12/11 00:09:18;;;;;;;3.78;2.38;;;14.90;89.70;;;;;;4993167;28;20080;-87
2022/12/11 00:11:45;;;;;;;6.18;2.30;;;15.00;89.80;;;;;;4993295;28;20026;-87
2022/12/11 00:14:10;;;;;;;3.08;1.80;;;14.90;89.80;;;;;;4993177;28;20050;-86
2022/12/11 00:16:36;;;;;;;2.72;2.03;;;15.00;89.90;;;;;;4993200;28;20058;-87
2022/12/11 00:19:02;;;;;;;2.78;2.08;;;14.90;89.90;;;;;;4975514;28;20018;-87
2022/12/11 00:21:28;;;;;;;2.85;2.10;;;15.00;89.90;;;;;;4975870;28;20110;-86
2022/12/11 00:23:53;;;;;;;2.53;1.90;;;15.00;89.80;;;;;;4975774;28;20121;-87
2022/12/11 00:26:19;;;;;;;4.25;2.00;;;15.00;89.80;;;;;;4975773;28;20372;-87
2022/12/11 00:28:45;;;;;;;2.22;1.70;;;14.90;89.70;;;;;;4994719;28;20022;-88
2022/12/11 00:31:14;;;;;;;3.70;2.50;;;14.90;89.60;;;;;;4995029;28;20022;-87
2022/12/11 00:33:41;;;;;;;2.67;1.90;;;15.00;89.60;;;;;;4984631;28;20058;-87
2022/12/11 00:36:24;;;;;;;4.32;2.05;;;15.00;89.60;;;;;;4975641;28;20050;-87
2022/12/11 00:38:51;;;;;;;2.53;2.05;;;15.00;89.60;;;;;;4977118;28;20019;-86
2022/12/11 00:41:17;;;;;;;5.38;2.50;;;15.00;89.60;;;;;;5012678;28;20018;-87
2022/12/11 00:43:43;;;;;;;2.97;2.03;;;15.00;89.60;;;;;;5016050;28;20026;-87
2022/12/11 00:46:10;;;;;;;2.47;1.75;;;15.00;89.60;;;;;;4999045;28;20029;-87
2022/12/11 00:48:35;;;;;;;2.50;2.03;;;15.00;89.60;;;;;;5016125;28;20475;-87
2022/12/11 00:51:01;;;;;;;2.33;1.88;;;15.00;89.60;;;;;;4999079;28;20095;-87
2022/12/11 00:53:27;;;;;;;2.33;1.80;;;15.00;89.60;;;;;;5016541;28;20025;-87
2022/12/11 00:55:52;;;;;;;2.63;1.88;;;15.00;89.60;;;;;;4998702;28;20395;-88
2022/12/11 00:58:19;;;;;;;1.98;1.70;;;14.90;89.50;;;;;;4998733;28;20037;-87
2022/12/11 01:00:47;;;;;;;3.13;1.95;;;14.90;89.60;;;;;;4998692;28;20104;-88
2022/12/11 01:03:13;;;;;;;2.65;1.83;;;14.90;89.70;;;;;;4998765;28;20101;-87
2022/12/11 01:05:39;;;;;;;3.25;1.83;;;15.00;89.80;;;;;;4998432;28;20589;-87
2022/12/11 01:08:05;;;;;;;3.45;2.38;;;14.90;89.70;;;;;;4998428;28;20061;-87
2022/12/11 01:10:32;;;;;;;2.13;1.85;;;14.90;89.70;;;;;;5016119;28;20036;-87
2022/12/11 01:13:03;;;;;;;2.53;2.00;;;14.90;89.80;;;;;;5016094;28;20026;-87
2022/12/11 01:15:37;;;;;;;3.42;1.85;;;14.90;89.70;;;;;;4998306;28;20052;-86
2022/12/11 01:18:02;;;;;;;3.38;1.80;;;14.90;89.70;;;;;;5015840;28;20048;-87
2022/12/11 01:20:28;;;;;;;3.30;2.08;;;14.90;89.70;;;;;;4998485;28;20030;-87
2022/12/11 01:22:59;;;;;;;2.53;2.03;;;15.00;89.70;;;;;;4998400;28;20479;-86
2022/12/11 01:25:27;;;;;;;2.58;2.10;;;14.90;89.60;;;;;;5015991;28;20030;-87
2022/12/11 01:27:54;;;;;;;2.92;1.92;;;14.90;89.60;;;;;;4998393;28;20505;-86
2022/12/11 01:30:22;;;;;;;2.28;2.00;;;14.90;89.50;;;;;;4998593;28;20096;-87
2022/12/11 01:32:48;;;;;;;2.45;1.98;;;14.90;89.50;;;;;;4998384;28;20033;-87
2022/12/11 01:35:14;;;;;;;2.70;2.03;;;15.00;89.50;;;;;;5015822;28;20093;-87
2022/12/11 01:37:40;;;;;;;2.28;1.88;;;14.90;89.40;;;;;;4998082;28;20022;-87
2022/12/11 01:40:07;;;;;;;2.47;1.80;;;15.00;89.50;;;;;;4985885;28;20030;-87
2022/12/11 01:42:33;;;;;;;3.00;2.00;;;15.00;89.40;;;;;;4983695;28;20026;-87
2022/12/11 01:45:19;;;;;;;2.60;2.22;;;15.10;89.40;;;;;;4982049;28;20471;-87
2022/12/11 01:47:44;;;;;;;3.10;2.05;;;15.00;89.40;;;;;;4984622;28;20053;-87
2022/12/11 01:50:10;;;;;;;3.10;2.03;;;14.90;89.30;;;;;;5007557;28;20108;-87
2022/12/11 01:52:36;;;;;;;2.50;1.80;;;14.90;89.40;;;;;;5004901;28;20033;-87
2022/12/11 01:55:03;;;;;;;3.65;1.83;;;14.90;89.40;;;;;;5004608;28;20030;-87
2022/12/11 01:57:29;;;;;;;2.35;1.90;;;14.90;89.50;;;;;;5014786;28;20026;-88
2022/12/11 01:59:55;;;;;;;2.63;1.75;;;14.90;89.50;;;;;;4985149;28;20095;-87
2022/12/11 02:02:28;;;;;;;2.70;1.70;;;14.90;89.60;;;;;;5001774;28;20152;-88
2022/12/11 02:04:53;;;;;;;2.28;1.73;;;14.90;89.60;;;;;;5006346;28;20030;-87
2022/12/11 02:07:19;;;;;;;2.30;1.80;;;14.90;89.60;;;;;;4978224;28;20026;-88
2022/12/11 02:09:46;;;;;;;3.15;1.95;;;14.90;89.60;;;;;;4987067;28;20053;-88
2022/12/11 02:12:14;;;;;;;2.65;2.05;;;15.00;89.70;;;;;;5014042;28;20030;-87
2022/12/11 02:14:55;;;;;;;2.17;1.58;;;14.90;89.60;;;;;;4997356;28;20089;-87
2022/12/11 02:17:43;;;;;;;2.72;1.80;;;14.90;89.60;;;;;;4997681;28;20022;-87
2022/12/11 02:20:21;;;;;;;3.05;2.17;;;14.90;89.50;;;;;;4997410;28;20033;-87
2022/12/11 02:23:03;;;;;;;3.03;1.95;;;14.90;89.50;;;;;;4997333;28;20022;-87
2022/12/11 02:25:38;;;;;;;3.58;1.75;;;14.90;89.50;;;;;;5014820;28;20029;-87
2022/12/11 02:28:22;;;;;;;2.20;1.73;;;14.90;89.40;;;;;;5002953;28;20113;-87
2022/12/11 02:30:59;;;;;;;2.65;1.95;;;14.90;89.40;;;;;;4977622;28;20402;-87
2022/12/11 02:33:41;;;;;;;2.38;1.85;;;14.90;89.30;;;;;;4977841;28;20113;-87
2022/12/11 02:36:08;;;;;;;3.58;2.03;;;14.90;89.30;;;;;;4977414;28;20121;-87
2022/12/11 02:38:38;;;;;;;3.42;1.80;;;15.00;89.30;;;;;;4977540;28;20023;-87
2022/12/11 02:41:06;;;;;;;2.17;1.50;;;15.00;89.30;;;;;;4994865;28;20026;-87
2022/12/11 02:43:34;;;;;;;3.53;2.20;;;15.00;89.20;;;;;;4977358;28;20037;-87
2022/12/11 02:46:02;;;;;;;2.63;1.88;;;15.10;89.30;;;;;;4977143;28;20072;-87
2022/12/11 02:48:28;;;;;;;2.63;1.75;;;15.00;89.20;;;;;;4977261;28;20217;-87
2022/12/11 02:50:56;;;;;;;2.67;1.83;;;15.00;89.20;;;;;;4997587;28;20084;-87
2022/12/11 02:53:27;;;;;;;2.30;1.88;;;15.00;89.30;;;;;;4982489;28;20017;-87
2022/12/11 02:55:55;;;;;;;;;;;14.90;89.30;;;;;;4998371;28;20034;-86
2022/12/11 02:58:25;;;;;;;2.65;1.90;;;14.90;89.40;;;;;;5032672;28;19999;-87
2022/12/11 03:00:51;;;;;;;3.28;2.17;;;14.90;89.40;;;;;;5006866;28;20025;-87
2022/12/11 03:03:17;;;;;;;1.85;1.40;;;15.00;89.50;;;;;;5013974;28;20030;-88
2022/12/11 03:05:45;;;;;;;4.05;1.83;;;14.90;89.40;;;;;;4995480;28;20033;-87
2022/12/11 03:08:10;;;;;;;2.38;1.85;;;14.90;89.50;;;;;;4976875;28;20026;-87
2022/12/11 03:10:36;;;;;;;3.45;2.00;;;14.90;89.50;;;;;;4976815;28;20034;-87
2022/12/11 03:13:02;;;;;;;1.92;1.50;;;14.90;89.50;;;;;;4976935;28;20396;-87
2022/12/11 03:16:03;;;;;;;2.05;1.80;;;14.90;89.50;;;;;;4990729;28;20030;-87
2022/12/11 03:18:39;;;;;;;2.90;1.90;;;14.90;89.40;;;;;;5012301;28;20022;-87
2022/12/11 03:21:16;;;;;;;3.03;2.08;;;14.90;89.40;;;;;;5009399;28;20101;-87
2022/12/11 03:23:50;;;;;;;2.33;1.80;;;15.00;89.40;;;;;;4996086;28;20030;-87
2022/12/11 03:26:17;;;;;;;3.90;1.75;;;14.90;89.30;;;;;;5008679;28;20486;-87
2022/12/11 03:28:49;;;;;;;2.05;1.75;;;14.90;89.30;;;;;;5015623;28;20056;-87
2022/12/11 03:31:28;;;;;;;2.08;1.63;;;14.90;89.20;;;;;;5003005;28;20032;-87
2022/12/11 03:33:59;;;;;;;2.08;1.88;;;14.90;89.20;;;;;;4986893;28;20036;-87
2022/12/11 03:36:31;;;;;;;2.47;1.55;;;15.00;89.20;;;;;;4996025;28;20033;-87
2022/12/11 03:39:00;;;;;;;3.08;1.83;;;15.00;89.20;;;;;;4994761;28;20632;-87
2022/12/11 03:41:29;;;;;;;3.30;2.08;;;15.00;89.20;;;;;;4976579;28;20096;-87
2022/12/11 03:43:57;;;;;;;2.88;1.70;;;15.10;89.20;;;;;;4976942;28;20018;-87
2022/12/11 03:46:30;;;;;;;2.50;1.75;;;15.00;89.10;;;;;;4995668;28;20033;-87
2022/12/11 03:49:00;;;;;;;2.70;1.63;;;15.00;89.10;;;;;;4995586;28;20029;-87
2022/12/11 03:51:27;;;;;;;;;;;15.00;89.10;;;;;;4995881;28;20127;-87
2022/12/11 03:53:54;;;;;;;2.17;1.60;;;15.00;89.20;;;;;;4995201;28;20059;-87
2022/12/11 03:56:22;;;;;;;2.50;1.73;;;14.90;89.10;;;;;;4993343;28;20050;-87
2022/12/11 03:58:48;;;;;;;2.00;1.73;;;14.90;89.20;;;;;;4993460;28;20447;-87
2022/12/11 04:01:14;;;;;;;3.35;2.17;;;14.90;89.20;;;;;;4993509;28;20026;-86
2022/12/11 04:03:39;;;;;;;1.77;1.60;;;15.00;89.30;;;;;;4975973;28;20161;-87
2022/12/11 04:06:05;;;;;;;2.15;1.42;;;14.90;89.30;;;;;;4975949;28;20069;-87
2022/12/11 04:08:31;;;;;;;2.33;1.63;;;14.90;89.30;;;;;;4975705;28;20041;-87
2022/12/11 04:13:41;;;;;;;3.45;2.15;;;14.90;89.40;;;;;;4993387;28;20058;-87
2022/12/11 04:16:06;;;;;;;2.35;1.80;;;14.90;89.40;;;;;;4991425;28;20022;-86
2022/12/11 04:24:16;;;;;;;1.83;1.52;;;14.80;89.50;;;;;;5031101;28;20072;-88
2022/12/11 04:26:46;;;;;;;2.88;1.75;;;14.80;89.50;;;;;;5030767;28;20032;-87
2022/12/11 04:29:12;;;;;;;2.17;1.50;;;14.80;89.60;;;;;;5005828;28;20025;-87
2022/12/11 04:31:38;;;;;;;1.90;1.63;;;14.80;89.50;;;;;;5028472;28;20029;-86
2022/12/11 04:34:04;;;;;;;2.10;1.75;;;14.80;89.50;;;;;;4997838;28;20041;-87
2022/12/11 04:36:29;;;;;;;2.55;1.70;;;14.80;89.50;;;;;;4997039;28;20044;-87
2022/12/11 04:38:55;;;;;;;2.53;1.63;;;14.80;89.50;;;;;;5013754;28;20141;-88
2022/12/11 04:41:20;;;;;;;2.15;1.75;;;14.70;89.50;;;;;;5005939;28;20026;-88
2022/12/11 04:43:46;;;;;;;2.78;1.80;;;14.80;89.70;;;;;;4997136;28;20026;-87
2022/12/11 04:46:17;;;;;;;2.97;1.83;;;14.70;89.70;;;;;;5013508;28;20368;-87
2022/12/11 04:48:44;;;;;;;1.85;1.52;;;14.80;89.70;;;;;;4996729;28;20030;-88
2022/12/11 04:51:10;;;;;;;1.90;1.35;;;14.80;89.60;;;;;;5014357;28;20038;-87
2022/12/11 04:53:36;;;;;;;2.00;1.80;;;14.80;89.50;;;;;;4996369;28;20030;-88
2022/12/11 04:56:07;;;;;;;1.55;1.45;;;14.90;89.40;;;;;;4996146;28;20507;-88
2022/12/11 04:58:33;;;;;;;4.22;1.33;;;14.90;89.30;;;;;;4996187;28;20121;-89
2022/12/11 05:01:00;;;;;;;1.70;1.58;;;15.00;89.20;;;;;;4996353;28;20018;-88
2022/12/11 05:03:25;;;;;;;1.85;1.50;;;15.00;89.00;;;;;;5014012;28;20021;-87
2022/12/11 05:05:52;;;;;;;2.05;1.75;;;15.00;89.00;;;;;;4996348;28;20072;-86
2022/12/11 05:08:20;;;;;;;1.85;1.50;;;15.00;88.90;;;;;;4995989;28;20026;-88
2022/12/11 05:11:01;;;;;;;1.73;1.58;;;15.00;88.90;;;;;;5001613;28;20069;-87
2022/12/11 05:13:27;;;;;;;2.38;1.73;;;15.10;88.90;;;;;;4995631;28;20101;-88
2022/12/11 05:15:53;;;;;;;2.08;1.50;;;15.10;88.80;;;;;;5013711;28;20391;-88
2022/12/11 05:18:19;;;;;;;1.98;1.55;;;15.10;88.80;;;;;;4995825;28;20022;-87
2022/12/11 05:20:53;;;;;;;3.97;1.42;;;15.20;88.80;;;;;;5001591;28;20029;-87
2022/12/11 05:23:19;;;;;;;1.70;1.55;;;15.30;88.90;;;;;;4995823;28;20026;-87
2022/12/11 05:25:51;;;;;;;1.92;1.60;;;15.30;88.80;;;;;;5013469;28;20048;-88
2022/12/11 05:28:16;;;;;;;1.60;1.27;;;15.40;88.90;;;;;;4996466;28;20622;-88
2022/12/11 05:30:42;;;;;;;2.72;1.30;;;15.40;88.90;;;;;;4999049;28;20026;-87
2022/12/11 05:33:07;;;;;;;1.75;1.33;;;15.40;88.80;;;;;;5017154;28;20033;-88
2022/12/11 05:35:33;;;;;;;1.80;1.60;;;15.50;88.90;;;;;;5016834;28;20029;-88
2022/12/11 05:37:59;;;;;;;2.47;1.75;;;15.50;88.90;;;;;;5016323;28;20025;-88
2022/12/11 05:40:24;;;;;;;1.83;1.45;;;15.50;88.70;;;;;;4998787;28;20506;-88
2022/12/11 05:42:50;;;;;;;2.13;1.42;;;15.50;88.70;;;;;;4998714;28;20487;-88
2022/12/11 05:45:16;;;;;;;1.50;1.40;;;15.60;88.80;;;;;;4998650;28;20449;-87
2022/12/11 05:47:41;;;;;;;2.70;1.70;;;15.60;88.80;;;;;;4998178;28;20030;-87
2022/12/11 05:50:07;;;;;;;1.77;1.48;;;15.60;88.60;;;;;;5015934;28;20068;-88
2022/12/11 05:52:33;;;;;;;2.53;1.70;;;15.60;88.60;;;;;;4998732;28;20033;-87
2022/12/11 05:54:58;;;;;;;1.60;1.40;;;15.60;88.60;;;;;;5014933;28;20036;-88
2022/12/11 05:57:24;;;;;;;1.40;1.30;;;15.70;88.60;;;;;;4998757;28;20030;-88
2022/12/11 05:59:49;;;;;;;2.17;1.42;;;15.70;88.50;;;;;;5012708;28;20018;-88
2022/12/11 06:02:15;;;;;;;1.98;1.58;;;15.70;88.50;;;;;;4998998;28;20018;-87
2022/12/11 06:04:40;;;;;;;1.80;1.35;;;15.80;88.50;;;;;;4999042;28;20032;-87
2022/12/11 06:07:06;;;;;;;1.55;1.45;;;15.80;88.50;;;;;;5014777;28;20022;-88
2022/12/11 06:09:32;;;;;;;1.50;1.35;;;15.80;88.40;;;;;;4998518;28;20113;-87
2022/12/11 06:11:57;;;;;;;2.30;1.50;;;15.80;88.30;;;;;;5014826;28;20029;-87
2022/12/11 06:14:23;;;;;;;1.95;1.30;;;15.80;88.10;;;;;;4998601;28;20509;-88
2022/12/11 06:16:49;;;;;;;2.42;1.52;;;15.80;87.90;;;;;;5016117;28;20492;-88
2022/12/11 06:19:17;;;;;;;1.60;1.20;;;15.90;87.80;;;;;;5015838;28;20022;-88
2022/12/11 06:21:44;;;;;;;1.48;1.38;;;15.90;87.70;;;;;;4998311;28;20455;-87
2022/12/11 06:24:10;;;;;;;1.60;1.48;;;15.80;87.50;;;;;;4998094;28;20087;-87
2022/12/11 06:26:35;;;;;;;2.40;1.42;;;15.80;87.40;;;;;;5015830;28;20108;-88
2022/12/11 06:29:01;;;;;;;2.58;2.05;;;15.80;87.30;;;;;;4998225;28;20026;-88
2022/12/11 06:31:26;;;;;;;1.75;1.65;;;15.80;87.20;;;;;;5015589;28;20443;-88
2022/12/11 06:33:53;;;;;;;1.73;1.40;;;15.80;87.10;;;;;;4998335;28;20488;-88
2022/12/11 06:36:20;;;;;;;3.22;1.92;;;15.80;87.20;;;;;;5014512;28;20080;-88
2022/12/11 06:38:46;;;;;;;1.33;1.23;;;15.80;87.20;;;;;;4998173;28;20356;-87
2022/12/11 06:41:13;;;;;;;1.60;1.20;;;15.80;87.20;;;;;;4998048;28;20399;-88
2022/12/11 06:43:40;;;;;;;2.08;1.58;;;15.70;87.20;;;;;;4997788;28;20029;-87
2022/12/11 06:46:08;;;;;;;1.13;1.05;;;15.70;87.30;;;;;;5015459;28;20483;-87
2022/12/11 06:48:34;;;;;;;1.23;1.13;;;15.70;87.40;;;;;;4997770;28;20066;-88
2022/12/11 06:51:04;;;;;;;1.50;1.40;;;15.70;87.40;;;;;;4997747;28;20196;-88
2022/12/11 06:53:30;;;;;;;2.30;1.48;;;15.70;87.40;;;;;;5014037;28;20026;-87
2022/12/11 06:56:00;;;;;;;2.42;1.60;;;15.70;87.40;;;;;;5014099;28;20037;-87
2022/12/11 06:58:25;;;;;;;2.35;1.40;;;15.70;87.40;;;;;;5014249;28;20022;-88
2022/12/11 07:00:51;;;;;;;1.60;1.50;;;15.70;87.40;;;;;;5003561;28;20030;-87
2022/12/11 07:03:16;;;;;;;2.35;1.58;;;15.60;87.40;;;;;;4995534;28;20022;-87
2022/12/11 07:05:42;;;;;;;1.30;1.20;;;15.70;87.50;;;;;;5011927;28;20041;-88
2022/12/11 07:08:07;;;;;;;1.60;1.50;;;15.60;87.40;;;;;;4997275;28;20490;-88
2022/12/11 07:10:33;;;;;;;1.80;1.48;;;15.60;87.50;;;;;;4997577;28;20546;-87
2022/12/11 07:12:58;;;;;;;1.45;1.33;;;15.60;87.50;;;;;;5015391;28;20030;-87
2022/12/11 07:15:24;;;;;;;1.30;1.15;;;15.60;87.60;;;;;;4997645;28;20018;-88
2022/12/11 07:17:50;;;;;;;2.15;1.48;;;15.50;87.60;;;;;;4997191;28;20026;-88
2022/12/11 07:20:16;;;;;;;2.15;1.45;;;15.50;87.60;;;;;;4997107;28;20022;-88
2022/12/11 07:22:41;;;;;;;1.48;1.27;;;15.50;87.60;;;;;;5005301;28;20388;-88
2022/12/11 07:25:07;;;;;;;1.40;1.30;;;15.50;87.60;;;;;;4996967;28;20033;-88
2022/12/11 07:27:33;;;;;;;1.08;1.02;;;15.50;87.60;;;;;;4996994;28;20018;-88
2022/12/11 07:29:59;;;;;;;1.75;1.52;;;15.50;87.60;;;;;;4996903;28;20077;-88
2022/12/11 07:32:24;;;;;;;1.88;1.35;;;15.60;87.60;;;;;;5012964;28;20021;-88
2022/12/11 07:34:50;;;;;;;1.90;1.40;;;15.60;87.70;;;;;;4996628;28;20036;-87
2022/12/11 07:37:17;;;;;;;1.48;1.30;;;15.60;87.60;;;;;;4997216;28;20133;-88
2022/12/11 07:39:42;;;;;;;1.38;1.27;;;15.60;87.70;;;;;;4996958;28;20046;-88
2022/12/11 07:42:08;;;;;;;1.30;1.20;;;15.60;87.50;;;;;;5013023;28;20022;-88
2022/12/11 07:44:33;;;;;;;2.20;1.55;;;15.60;87.50;;;;;;5006675;28;20026;-88
2022/12/11 07:46:59;;;;;;;1.38;1.20;;;15.60;87.50;;;;;;4996907;28;20049;-88
2022/12/11 07:49:24;;;;;;;1.52;1.42;;;15.60;87.50;;;;;;5012572;28;20033;-88
2022/12/11 07:51:50;;;;;;;1.55;1.45;;;15.60;87.50;;;;;;5013772;28;20022;-88
2022/12/11 07:54:16;;;;;;;1.52;1.42;;;15.70;87.50;;;;;;4996079;28;20492;-88
2022/12/11 07:56:44;;;;;;;1.90;1.45;;;15.70;87.40;;;;;;5005415;28;20509;-88
2022/12/11 07:59:10;;;;;;;1.88;1.27;;;15.70;87.40;;;;;;4996058;28;20033;-88
2022/12/11 08:01:36;;;;;;;1.73;1.40;;;15.70;87.30;;;;;;5012697;28;20072;-88
2022/12/11 08:04:08;;;;;;;1.38;1.27;;;15.70;88.00;;;;;;5012619;28;20025;-88
2022/12/11 08:06:36;;;;;;;1.58;1.25;;;15.70;87.10;;;;;;5013946;28;20022;-89
2022/12/11 08:09:05;;;;;;;2.10;1.60;;;15.80;87.20;;;;;;4996079;28;20190;-88
2022/12/11 08:11:30;;;;;;;1.55;1.45;;;15.80;87.20;;;;;;4996325;28;20042;-88
2022/12/11 08:13:58;;;;;;;1.60;1.50;;;15.80;87.60;;;;;;5012843;28;20091;-88
2022/12/11 08:16:24;;;;;;;2.60;1.63;;;15.80;87.10;;;;;;5013483;28;20033;-88
2022/12/11 08:18:49;;;;;;;1.40;1.30;;;15.80;87.10;;;;;;4995966;28;20020;-88
2022/12/11 08:21:21;;;;;;;1.98;1.40;;;15.80;87.00;;;;;;5012613;28;20094;-88
2022/12/11 08:23:47;;;;;;;1.63;1.35;;;15.80;86.90;;;;;;4996152;28;20053;-88
2022/12/11 08:26:16;;;;;;;2.58;1.58;;;15.90;86.90;;;;;;4996222;28;20495;-87
2022/12/11 08:28:42;;;;;;;1.42;1.33;;;15.90;86.90;;;;;;4996117;28;20057;-87
2022/12/11 08:31:09;;;;;;;2.08;1.50;;;15.90;86.80;;;;;;4995840;28;20495;-88
2022/12/11 08:33:36;;;;;;;1.40;1.30;;;16.00;86.90;;;;;;4995893;28;20062;-86
2022/12/11 08:36:03;;;;;;;1.60;1.45;;;15.90;86.60;;;;;;4995817;28;20041;-88
2022/12/11 08:38:30;;;;;;;1.40;1.30;;;16.20;86.10;;;;;;5013030;28;20022;-88
2022/12/11 08:40:55;;;;;;;1.42;1.20;;;16.80;85.00;;;;;;4995523;28;20022;-88
2022/12/11 08:43:21;;;;;;;2.15;1.48;;;17.60;82.40;;;;;;5008870;28;20022;-88
2022/12/11 08:45:47;;;;;;;1.83;1.48;;;18.00;80.60;;;;;;4995399;28;20402;-88
2022/12/11 08:48:12;;;;;;;1.45;1.30;;;18.30;79.00;;;;;;5013073;28;20026;-88
2022/12/11 08:50:38;;;;;;;1.38;1.20;;;18.60;77.80;;;;;;4998202;28;20585;-87
2022/12/11 08:53:03;;;;;;;1.70;1.23;;;18.30;77.20;;;;;;5002175;28;20022;-88
2022/12/11 08:55:30;;;;;;;1.48;1.38;;;17.40;79.60;;;;;;5005845;28;20021;-88
2022/12/11 08:57:55;;;;;;;1.38;1.27;;;16.90;81.80;;;;;;4996975;28;20399;-88
2022/12/11 09:00:21;;;;;;;1.48;1.20;;;16.60;83.30;;;;;;4995891;28;20033;-88
2022/12/11 09:02:47;;;;;;;2.05;1.52;;;16.40;84.10;;;;;;4995810;28;20037;-88
2022/12/11 09:05:12;;;;;;;1.33;1.23;;;16.30;84.90;;;;;;4999829;28;20030;-88
2022/12/11 09:07:38;;;;;;;1.70;1.60;;;16.30;85.30;;;;;;4999502;28;20096;-88
2022/12/11 09:10:06;;;;;;;1.73;1.45;;;16.30;85.70;;;;;;4999364;28;20045;-87
2022/12/11 09:12:33;;;;;;;1.65;1.27;;;16.30;85.90;;;;;;5015588;28;20450;-87
2022/12/11 09:14:59;;;;;;;1.60;1.45;;;16.20;86.20;;;;;;4999402;28;20026;-88
2022/12/11 09:17:24;;;;;;;1.60;1.50;;;16.30;86.40;;;;;;4999231;28;20113;-88
2022/12/11 09:19:50;;;;;;;1.63;1.52;;;16.30;86.50;;;;;;5015566;28;20573;-89
2022/12/11 09:22:15;;;;;;;1.30;1.20;;;16.30;86.60;;;;;;5013209;28;20112;-88
2022/12/11 09:24:41;;;;;;;2.95;1.60;;;16.30;86.70;;;;;;5015532;28;20048;-88
2022/12/11 09:27:06;;;;;;;1.30;1.20;;;16.30;86.70;;;;;;4998822;28;20491;-88
2022/12/11 09:29:32;;;;;;;1.40;1.30;;;16.30;86.70;;;;;;5016484;28;20022;-88
2022/12/11 09:31:57;;;;;;;2.55;1.38;;;16.30;86.80;;;;;;5015342;28;20026;-87
2022/12/11 09:34:23;;;;;;;1.73;1.40;;;16.30;86.80;;;;;;5016273;28;20018;-88
2022/12/11 09:36:49;;;;;;;1.98;1.45;;;16.30;86.90;;;;;;4998952;28;20556;-88
2022/12/11 09:39:16;;;;;;;1.10;1.00;;;16.40;87.00;;;;;;5015614;28;20104;-88
2022/12/11 09:42:00;;;;;;;1.92;1.40;;;16.30;87.10;;;;;;5016145;28;20026;-88
2022/12/11 09:44:31;;;;;;;1.40;1.30;;;16.40;87.10;;;;;;5005950;28;20018;-87
2022/12/11 09:46:57;;;;;;;2.28;1.65;;;16.40;87.10;;;;;;5006013;28;20066;-87
2022/12/11 09:49:23;;;;;;;1.85;1.35;;;16.40;87.10;;;;;;4998301;28;20026;-88
2022/12/11 09:52:04;;;;;;;1.60;1.50;;;16.40;87.10;;;;;;4998617;28;20433;-88
2022/12/11 09:54:30;;;;;;;1.40;1.30;;;16.40;87.10;;;;;;4998490;28;20658;-88
2022/12/11 09:57:10;;;;;;;1.60;1.35;;;16.40;87.00;;;;;;5016078;28;20030;-88
2022/12/11 09:59:44;;;;;;;;;;;16.40;87.10;;;;;;5016281;28;20026;-87
2022/12/11 10:02:24;;;;;;;1.85;1.25;;;16.50;87.10;;;;;;5003538;28;19928;-87
2022/12/11 10:05:03;;;;;;;1.30;1.20;;;16.40;87.10;;;;;;5018080;28;20025;-88
2022/12/11 10:07:45;;;;;;;1.60;1.50;;;16.40;87.20;;;;;;5035440;28;20022;-88
2022/12/11 10:10:32;;;;;;;3.38;1.50;;;16.50;87.30;;;;;;4998880;28;20018;-88
2022/12/11 10:13:44;;;;;;;1.58;1.30;;;16.50;87.30;;;;;;4997735;28;20026;-88
2022/12/11 10:16:35;;;;;;;1.85;1.38;;;16.50;87.20;;;;;;5009986;28;20034;-88
2022/12/11 10:19:02;;;;;;;1.98;1.50;;;16.50;87.20;;;;;;4997628;28;20034;-88
2022/12/11 10:21:40;;;;;;;3.72;1.50;;;16.60;87.20;;;;;;4997822;28;20041;-88
2022/12/11 10:24:15;;;;;;;2.30;1.60;;;16.60;87.10;;;;;;4997962;28;20075;-88
2022/12/11 10:26:41;;;;;;;1.52;1.40;;;16.60;87.10;;;;;;4998026;28;20109;-88
2022/12/11 10:29:13;;;;;;;2.53;1.40;;;16.60;87.00;;;;;;4997420;28;20030;-88
2022/12/11 10:31:44;;;;;;;2.05;1.63;;;16.60;87.10;;;;;;4997482;28;20018;-88
2022/12/11 10:34:19;;;;;;;1.50;1.40;;;16.60;87.10;;;;;;4978413;28;20364;-87
2022/12/11 10:36:44;;;;;;;2.35;1.60;;;16.60;87.10;;;;;;5008109;28;20483;-88
2022/12/11 10:39:15;;;;;;;1.95;1.45;;;16.60;87.00;;;;;;4997533;28;20033;-86
2022/12/11 10:41:43;;;;;;;1.55;1.45;;;16.60;87.00;;;;;;4997799;28;20025;-87
2022/12/11 10:44:22;;;;;;;2.90;1.50;;;16.60;87.00;;;;;;4997509;28;20526;-87
2022/12/11 10:47:09;;;;;;;1.65;1.40;;;16.60;86.90;;;;;;4997602;28;20033;-88
2022/12/11 10:49:37;;;;;;;1.98;1.42;;;16.50;86.80;;;;;;4997323;28;20026;-88
2022/12/11 10:52:17;;;;;;;1.83;1.52;;;16.50;86.80;;;;;;4997432;28;20033;-88
2022/12/11 10:54:45;;;;;;;;;;;16.60;86.90;;;;;;5015209;28;20499;-87
2022/12/11 10:57:13;;;;;;;1.52;1.17;;;16.60;86.80;;;;;;4997301;28;19905;-88
2022/12/11 10:59:41;;;;;;;1.65;1.55;;;16.50;86.70;;;;;;4997081;28;20045;-87
2022/12/11 11:02:23;;;;;;;1.40;1.30;;;16.50;86.70;;;;;;4998155;28;20510;-88
2022/12/11 11:04:49;;;;;;;1.42;1.30;;;16.60;86.80;;;;;;4997386;28;20036;-87
2022/12/11 11:07:20;;;;;;;1.60;1.17;;;16.50;86.60;;;;;;4989128;28;20034;-88
2022/12/11 11:09:46;;;;;;;1.30;1.20;;;16.50;86.60;;;;;;5008725;28;20112;-88
2022/12/11 11:12:38;;;;;;;2.00;1.40;;;16.50;86.60;;;;;;4996862;28;20068;-88
2022/12/11 11:15:09;;;;;;;1.90;1.50;;;16.50;86.60;;;;;;5014309;28;20026;-87
2022/12/11 11:17:43;;;;;;;1.58;1.40;;;16.50;86.70;;;;;;5014561;28;20026;-89
2022/12/11 11:20:17;;;;;;;3.08;1.67;;;16.50;86.70;;;;;;4996971;28;20022;-87
2022/12/11 11:22:48;;;;;;;2.50;1.65;;;16.60;86.80;;;;;;4996568;28;20117;-88
2022/12/11 11:25:23;;;;;;;1.50;1.38;;;16.60;86.80;;;;;;5019318;23;20065;-88
2022/12/11 11:28:06;;;;;;;1.90;1.60;;;16.60;86.70;;;;;;4986835;28;20061;-88
2022/12/11 11:30:38;;;;;;;2.45;1.38;;;16.60;86.80;;;;;;4987487;28;20081;-89
2022/12/11 11:33:17;;;;;;;2.22;1.45;;;16.60;86.70;;;;;;4972993;28;20031;-88
2022/12/11 11:35:59;;;;;;;2.50;1.58;;;16.60;86.70;;;;;;4955635;29;20124;-88
2022/12/11 11:38:30;;;;;;;2.08;1.50;;;16.60;86.70;;;;;;4954515;29;20027;-88
2022/12/11 11:41:06;;;;;;;2.50;1.67;;;16.60;86.70;;;;;;4957325;28;20027;-86
2022/12/11 11:43:45;;;;;;;1.48;1.38;;;16.60;86.80;;;;;;4980281;28;20026;-88
2022/12/11 11:46:23;;;;;;;2.47;1.50;;;16.60;86.90;;;;;;4983444;28;20536;-88
2022/12/11 11:49:27;;;;;;;1.45;1.35;;;16.60;86.80;;;;;;4958631;28;20031;-87
2022/12/11 11:52:14;;;;;;;2.10;1.50;;;16.60;86.80;;;;;;4970882;28;20027;-88
2022/12/11 11:55:08;;;;;;;1.73;1.63;;;16.60;86.70;;;;;;4976253;28;20053;-88
2022/12/11 11:57:54;;;;;;;1.98;1.65;;;16.60;86.70;;;;;;4966959;28;20046;-88
2022/12/11 12:00:25;;;;;;;2.30;1.50;;;16.60;86.60;;;;;;4970755;28;20030;-88
2022/12/11 12:02:56;;;;;;;2.33;1.50;;;16.60;86.70;;;;;;4979877;28;20030;-88
2022/12/11 12:05:50;;;;;;;1.75;1.40;;;16.60;86.70;;;;;;4979996;28;20058;-87
2022/12/11 12:08:25;;;;;;;1.55;1.45;;;16.50;86.70;;;;;;4948170;28;20035;-88
2022/12/11 12:11:06;;;;;;;1.90;1.60;;;16.60;86.80;;;;;;4954115;29;20030;-88
2022/12/11 12:14:00;;;;;;;2.03;1.38;;;16.50;86.70;;;;;;4959490;28;20023;-87
2022/12/11 12:16:54;;;;;;;2.13;1.70;;;16.50;86.80;;;;;;4961228;28;20028;-87
2022/12/11 12:19:44;;;;;;;2.05;1.70;;;16.50;86.70;;;;;;4954328;28;20101;-88
2022/12/11 12:22:22;;;;;;;1.40;1.30;;;16.50;86.70;;;;;;4973597;28;20026;-86
2022/12/11 12:25:06;;;;;;;1.85;1.67;;;16.50;86.80;;;;;;4967165;28;20031;-88
2022/12/11 12:27:50;;;;;;;2.08;1.52;;;16.50;86.90;;;;;;4955339;28;20050;-87
2022/12/11 12:30:17;;;;;;;1.95;1.60;;;16.50;86.90;;;;;;4965115;28;20022;-88
2022/12/11 12:33:29;;;;;;;2.15;1.50;;;16.40;86.90;;;;;;4975542;28;20025;-88
2022/12/11 12:36:01;;;;;;;2.60;1.80;;;16.40;86.90;;;;;;4953027;28;20110;-88
2022/12/11 12:38:46;;;;;;;2.15;1.60;;;16.40;86.80;;;;;;4973697;28;20110;-88
2022/12/11 12:41:33;;;;;;;2.58;1.98;;;16.40;87.30;;;;;;4998542;28;20061;-88
2022/12/11 12:44:12;;;;;;;1.73;1.48;;;16.40;86.90;;;;;;4974397;28;20023;-87
2022/12/11 12:46:58;;;;;;;2.43;1.60;;;16.40;86.80;;;;;;4968353;28;20027;-88
2022/12/11 12:49:45;;;;;;;2.35;1.42;;;16.40;86.80;;;;;;4981732;28;20026;-88
2022/12/11 12:52:25;;;;;;;1.63;1.38;;;16.40;87.60;;;;;;4987455;28;20085;-88
2022/12/11 12:55:14;;;;;;;2.38;1.80;;;16.40;86.80;;;;;;4987346;28;20093;-87
2022/12/11 12:57:48;;;;;;;3.42;1.70;;;16.40;86.90;;;;;;4979592;28;20118;-87
2022/12/11 13:00:25;;;;;;;1.77;1.60;;;16.40;86.80;;;;;;4979310;28;20085;-88
2022/12/11 13:02:52;;;;;;;2.78;1.70;;;16.40;86.80;;;;;;4989480;28;20528;-88
2022/12/11 13:05:25;;;;;;;2.70;1.77;;;16.40;86.80;;;;;;4989599;28;20180;-88
2022/12/11 13:07:54;;;;;;;3.50;1.85;;;16.40;86.80;;;;;;4965828;28;20489;-87
2022/12/11 13:10:36;;;;;;;1.60;1.50;;;16.40;86.80;;;;;;4977907;28;20042;-87
2022/12/11 13:13:04;;;;;;;1.73;1.55;;;16.40;86.80;;;;;;4972779;28;20034;-86